Luis Mena

Olheiro-Chefe - Cobresal
19 Ago 2027
Quinta-feira
Processo

Personalidade

Adaptabilidade (3) Ambição (4) Controvérsia (1) Lealdade (5) Pressão (2) Profissionalismo (7) Espírito Esportivo (19) Temperamento (8)

Perfil

Estilo de Treinamento Democrático
Licença Continental B
Determinação 4
Gestão de Pessoas 9
Motivação 4
Disciplina 4
Satisfação no Trabalho
100%
Fadiga
0%
Função Olheiro-Chefe
Salário 46.1K p/s
Contrato 14.03.2029

Desempenho

Comportamento Bom
Eficácia do Treinamento
23%
Desenvolvimento do Jogador
30%
Prevenção de Lesões
50%
Implementação Tática
25%

Eventos Recentes

Participou de uma reunião de recrutamento agora
Participou de uma reunião de recrutamento 7d atrás
Recomendou um alvo de transferência 7d atrás
Recomendou um alvo de transferência 7d atrás
Participou de uma reunião de recrutamento 14d atrás
Recomendou um alvo de transferência 14d atrás
Recomendou um alvo de transferência 14d atrás
Recomendou um alvo de transferência 21d atrás

Monitorando agora

121
Jogador Clube Status Habilidade Confiança Observado Última observação Último voto
Goga Kobiashvili Veres Negociando 92 / 92 66% 1 01.06.2027 Aprovar
Edin Višća Progreso Negociando 119 / 119 66% 1 01.06.2027 Aprovar
Aidomo Emakhu Oxford United Ativo 128 / 136 40% 2 31.05.2027 -
Alassana Jatta Notts County Ativo 96 / 118 40% 2 31.05.2027 -
Jaze Kabia Grimsby Town Ativo 98 / 86 40% 3 30.05.2027 -
Aaron Drinan Swindon Town Ativo 117 / 114 40% 5 29.05.2027 -
Ronan Hale Gillingham Ativo 102 / 118 40% 5 29.05.2027 -
Yousef Salech Cardiff City Ativo 126 / 124 40% 6 27.05.2027 Observar
Petar Musa Adana Demirspor Ativo 131 / 156 40% 2 27.05.2027 -
Richard Koné Queens Park Rangers Ativo 120 / 125 40% 5 26.05.2027 -
Santiago Pierotti Lecce Ativo 135 / 136 40% 3 26.05.2027 -
Shayne Lavery Cambridge United Ativo 118 / 99 40% 5 25.05.2027 -
Christian Saydee Wigan Athletic Ativo 106 / 122 40% 1 25.05.2027 -
Sam Nombe Milton Keynes Dons Ativo 101 / 109 40% 7 24.05.2027 -
Giacomo Zecca Torres Ativo 110 / 94 40% 2 23.05.2027 -
Malik Mothersille Stockport County Ativo 118 / 122 40% 3 22.05.2027 -
Jonathan Gyan Liberty Professionals Ativo 90 / 96 40% 2 22.05.2027 -
Aaron Collins Milton Keynes Dons Ativo 121 / 132 40% 2 21.05.2027 -
Daniel Udoh Salford City Ativo 109 / 111 40% 4 21.05.2027 -
Tyreece Campbell Charlton Athletic Ativo 121 / 107 40% 6 18.05.2027 -
Kelly Saravanan Salford City Ativo 112 / 110 40% 3 18.05.2027 -
Manuel Ospina Cortulua Ativo 131 / 132 40% 1 18.05.2027 -
Zian Flemming Ipswich Town Ativo 125 / 140 40% 4 17.05.2027 Observar
Josh Koroma Leyton Orient Ativo 105 / 97 40% 4 16.05.2027 -
Kyle Wootton Stockport County Ativo 109 / 115 40% 3 16.05.2027 -
Adam Idah Swansea City Ativo 130 / 116 40% 3 10.05.2027 -
George Hirst Stoke City Ativo 142 / 116 40% 5 10.05.2027 Observar
Bojan Radulović Huddersfield Town Ativo 113 / 101 40% 4 09.05.2027 -
Andri Guðjohnsen Blackburn Rovers Ativo 121 / 137 40% 1 08.05.2027 -
Lorent Tolaj Plymouth Argyle Ativo 117 / 104 40% 6 06.05.2027 -
Marcus Browne AFC Wimbledon Ativo 111 / 112 40% 4 06.05.2027 -
Matteo Rover Reggiana Ativo 113 / 120 40% 1 06.05.2027 -
Dom Ballard Leyton Orient Ativo 133 / 139 40% 6 05.05.2027 Observar
Marezi Portsmouth Ativo 115 / 121 40% 3 05.05.2027 -
Kwame Opoku Asante Kotoko Ativo 108 / 102 40% 6 03.05.2027 -
Bismark Asante Ashanti Gold Ativo 97 / 84 40% 1 30.04.2027 -
Jonathan Burkardt Eintracht Frankfurt Ativo 157 / 160 40% 3 29.04.2027 -
Silvio Merkaj Vicenza Ativo 125 / 100 40% 1 29.04.2027 -
Giuseppe Di Serio Spezia Ativo 123 / 132 40% 2 28.04.2027 -
Stephen Humphrys Bradford City Ativo 115 / 94 40% 1 28.04.2027 -
Ekain Orobengoa Real Sociedad Ativo 106 / 105 40% 6 25.04.2027 -
Victor Torp Coventry City Ativo 139 / 124 40% 1 25.04.2027 -
Lee Bonis Chesterfield Ativo 110 / 98 40% 1 24.04.2027 -
Harry Leonard Peterborough United Ativo 115 / 128 40% 2 21.04.2027 -
Will Evans Mansfield Town Ativo 87 / 84 40% 1 21.04.2027 -
Martin Sekulić Ural Ativo 118 / 119 40% 5 17.04.2027 -
Robert Mizo Ashanti Gold Ativo 100 / 100 40% 3 17.04.2027 -
Adolfo Muñoz Ruch Ativo 109 / 111 40% 5 11.04.2027 -
Callum Lang Preston Ativo 106 / 108 40% 1 11.04.2027 -
Louis Appéré Cambridge United Ativo 104 / 113 40% 3 10.04.2027 -
Claudio Villagra Volos NPS Ativo 103 / 99 40% 4 09.04.2027 -
Jayden Wareham Barnet Ativo 98 / 105 40% 3 08.04.2027 -
Bradley Fink Wycombe Wanderers Ativo 97 / 103 40% 3 07.04.2027 -
Lewis McCann Fleetwood Town Ativo 110 / 87 40% 1 07.04.2027 -
Job Ochieng Real Sociedad Ativo 103 / 108 40% 4 04.04.2027 -
Guilherme Ankaragucu Ativo 140 / 112 40% 2 03.04.2027 -
Rayan Bournemouth Ativo 137 / 127 40% 1 03.04.2027 -
Harry Cornick AFC Wimbledon Ativo 100 / 115 40% 3 31.03.2027 -
Adnan Courtois KV Oostende Ativo 137 / 132 40% 6 28.03.2027 -
Callum Stead Barnet Ativo 84 / 95 40% 1 25.03.2027 -
Rocco Vata Watford Ativo 112 / 142 40% 1 24.03.2027 -
Tomás González Piast Ativo 128 / 124 40% 2 23.03.2027 -
Isaac Essien WAFA Ativo 98 / 100 40% 3 22.03.2027 -
Toni Fruk KV Mechelen Ativo 142 / 138 40% 1 17.03.2027 -
Friday Ubong Ashanti Gold Ativo 107 / 91 40% 1 16.03.2027 -
Niall Ennis Blackpool Ativo 113 / 119 40% 5 12.03.2027 -
Danyil Alefirenko Chornomorets Ativo 122 / 108 40% 4 12.03.2027 -
Davis Keillor-Dunn Wrexham Ativo 129 / 127 40% 4 10.03.2027 -
Iwan Morgan Grimsby Town Ativo 114 / 98 40% 2 08.03.2027 -
Elijah Adebayo Luton Town Ativo 137 / 106 40% 2 02.03.2027 -
Mees Rijks Bristol Rovers Ativo 107 / 101 40% 3 01.03.2027 -
Hany Mukhtar Spezia Ativo 140 / 151 40% 2 28.02.2027 -
Pedro Marques Apollon Ativo 114 / 123 40% 1 24.02.2027 -
Dany Mota Monza Ativo 133 / 146 40% 1 22.02.2027 -
Nathan Ordaz Metalist Ativo 123 / 115 40% 2 17.02.2027 -
Andrés Dieppa Metalurh Zaporizhzhia Ativo 84 / 96 40% 1 15.02.2027 -
Mathias Jørgensen Blackburn Rovers Ativo 123 / 134 40% 1 15.02.2027 -
Slobodan Tedić Akron Ativo 116 / 113 40% 1 13.02.2027 -
Erik Prekop Gornik Zabrze Ativo 142 / 128 40% 1 12.02.2027 -
Edarlyn Reyes Arsenal Tula Ativo 109 / 122 40% 1 09.02.2027 -
Samuel Kalu Botev Plovdiv Ativo 112 / 105 40% 1 05.02.2027 -
Vyacheslav Grulev Nizhniy Novgorod Ativo 117 / 123 40% 2 02.02.2027 -
Róbert Polievka MTK Budapest Ativo 109 / 124 40% 1 02.02.2027 -
Sam Bell Bristol City Ativo 108 / 105 40% 2 01.02.2027 -
Everton Bala Levski Ativo 126 / 116 40% 1 01.02.2027 -
Nicolás Luján Panserraikos Ativo 87 / 108 40% 1 31.01.2027 -
Leandro Godoy CSKA Sofia Ativo 123 / 121 40% 1 31.01.2027 -
Abdallah Gning Banik Ostrava Ativo 107 / 115 40% 1 28.01.2027 -
Bruno Gomes Valletta Ativo 95 / 106 40% 1 28.01.2027 -
Agustín Módica Gimnasia y Esgrima Ativo 116 / 113 40% 1 25.01.2027 -
Juan Cruz Martins Jihlava Ativo 108 / 118 40% 2 24.01.2027 -
Lincoln Spartak Subotica Ativo 99 / 103 40% 1 24.01.2027 -
Nicolás Contín MFK Ruzomberok Ativo 128 / 113 40% 1 23.01.2027 -
Kenan Dervišagić Floriana Ativo 110 / 86 40% 1 23.01.2027 -
Alexandr Yushin Torpedo Moscow Ativo 112 / 95 40% 1 22.01.2027 -
Rodrigo Bogarín Barracas Central Ativo 117 / 125 40% 1 20.01.2027 -
Robert Murić Floriana Ativo 92 / 114 40% 1 17.01.2027 -
Carlos Guerreño Slavia Sofia Ativo 114 / 104 40% 1 17.01.2027 -
Sergio González Racing Ativo 108 / 102 40% 1 16.01.2027 -
Yeangel Montero Naxxar Lions Ativo 116 / 106 40% 1 15.01.2027 -
Gabriel Charpentier Cracovia Ativo 120 / 99 40% 1 13.01.2027 -
Santiago Rodríguez Gimnasia y Esgrima Ativo 116 / 109 40% 1 06.01.2027 -
Alan Soñora Cerro Porteno Ativo 116 / 113 40% 2 09.08.2026 -
Mauricio Márquez Caracas Ativo 99 / 104 40% 1 09.08.2026 -
Capa Ceuta Ativo 105 / 84 40% 1 09.08.2026 -
Lucas Sanabria Libertad Ativo 117 / 100 40% 1 08.08.2026 -
Alejandro Samudio Nacional Ativo 107 / 116 40% 1 08.08.2026 -
George Ayine Metropolitanos Ativo 98 / 100 40% 1 07.08.2026 -
Marcos Cuenca Zaragoza Ativo 95 / 114 40% 1 07.08.2026 -
Héber García Portuguesa Ativo 101 / 89 40% 1 07.08.2026 -
José Luján Alianza Atletico Ativo 104 / 119 40% 1 06.08.2026 -
Jean Franco Fuentes Metropolitanos Ativo 107 / 113 40% 1 06.08.2026 -
Nelson Cabanillas Melgar Ativo 112 / 111 40% 1 06.08.2026 -
Luis Guevara Real Cartagena Ativo 99 / 109 40% 1 04.08.2026 -
Gonzalo Errecalde Gimnasia La Plata Ativo 117 / 119 40% 1 03.08.2026 -
Mateo Seoane Gimnasia La Plata Ativo 118 / 119 40% 1 03.08.2026 -
Maximiliano Luayza Koot Tristán Suárez Ativo 104 / 101 40% 1 02.08.2026 -
Gino Barbieri Almagro Ativo 103 / 106 40% 1 02.08.2026 -
David López Mallorca Ativo 120 / 104 40% 1 02.08.2026 -
Paolo Reyna Universitario Ativo 118 / 128 40% 1 01.08.2026 -
Fermín Antonini Gimnasia y Esgrima Ativo 110 / 117 40% 1 01.08.2026 -